ENEV/EVE METAR and TAF weather

Enter ICAO airport designator
Station Type Date Time Source
ENEV METAR 2020/02/24 22:50 UTC NOAA

ENEV 242250Z AUTO 02002KT 9999 FEW098/// M08/M09 Q0993 RMK WIND 1400FT 32005KT


Station Type Date Time Source
ENEV Decoded METAR 2020/02/24 22:50 UTC NOAA

Evenes, Norway (ENEV) 68-31N 016-41E 26M
Feb 24, 2020 - 05:50 PM EST / 2020.02.24 2250 UTC
Wind: from the NNE (020 degrees) at 2 MPH (2 KT):0
Visibility: greater than 7 mile(s):0
Sky conditions: mostly clear
Temperature: 17 F (-8 C)
Dew Point: 15 F (-9 C)
Relative Humidity: 92%
Pressure (altimeter): 29.32 in. Hg (0993 hPa)
ob: ENEV 242250Z AUTO 02002KT 9999 FEW098/// M08/M09 Q0993 RMK WIND 1400FT 32005KT
cycle: 23

Station Type Date Time Source
ENEV TAF 2010/02/05 07:50 UTC NOAA

METAR ENEV 050750Z 14007KT 9999 FEW040 SCT055 M04/M09 Q1019

Example: see airport list